5II7 weather

Fort Wayne-District Operations Heliport
Fort Wayne, Indiana, United States

Public forecast

Using degrees Fahrenheit for public forecast. Weather courtesy of forecast.io.

METAR (pilot weather report)

Closest report is Fort Wayne International Airport, 5.4 nm (10.0 km) SSW. Retrieved 2019/04/26 01:30 UTC (15 minutes ago):

KFWA 260130Z 08007KT 3SM RA BR FEW003 BKN050 OVC075 14/14 A2963

TAF (pilot weather forecast)

Forecast is more than 12 hours old.

Closest forecast is Fort Wayne International Airport, 5.4 nm (10.0 km) SSW. Retrieved 2019/04/25 00:30 UTC (1 day ago):

TAF KFWA 252328Z 2600/2624 07005KT 2SM SHRA BR VCTS OVC007CB TEMPO 2600/2604 1SM +SHRA OVC004 FM260700 33012G22KT 5SM SHRA BR OVC005 FM261500 33015G25KT P6SM BKN020 FM261700 34020G30KT P6SM SCT035